createdAt,value
2023-04-05T00:01:18.490Z,656.85
2023-04-05T00:04:24.827Z,751.21
2023-04-05T00:07:36.250Z,803.95
2023-04-05T00:10:42.989Z,747.58
2023-04-05T00:13:53.146Z,735.77
2023-04-05T00:16:59.214Z,677.35
2023-04-05T00:20:08.337Z,584.79
2023-04-05T00:23:14.986Z,549.70
2023-04-05T00:26:22.635Z,546.22
2023-04-05T00:29:36.185Z,531.23
2023-04-05T00:32:43.038Z,529.00
2023-04-05T00:35:49.830Z,531.20
2023-04-05T00:38:56.786Z,530.98
2023-04-05T00:42:06.471Z,553.00
2023-04-05T00:45:17.449Z,555.99
2023-04-05T00:48:33.399Z,576.01
2023-04-05T00:51:42.419Z,582.39
2023-04-05T00:54:49.636Z,577.66
2023-04-05T00:58:11.538Z,561.79
2023-04-05T01:01:38.354Z,593.49
2023-04-05T01:04:50.898Z,683.03
2023-04-05T01:08:11.145Z,699.91
2023-04-05T01:11:22.437Z,752.63
2023-04-05T01:14:28.789Z,689.53
2023-04-05T01:17:39.747Z,613.11
2023-04-05T01:20:58.554Z,568.27
2023-04-05T01:24:36.372Z,510.92
2023-04-05T01:28:16.319Z,519.68
2023-04-05T01:31:40.494Z,542.62
2023-04-05T01:34:57.362Z,634.58
2023-04-05T01:38:15.756Z,670.40
2023-04-05T01:41:22.094Z,712.02
2023-04-05T01:44:31.532Z,723.67
2023-04-05T01:47:40.075Z,644.39
2023-04-05T01:50:48.431Z,617.83
2023-04-05T01:53:54.543Z,659.57
2023-04-05T01:57:01.428Z,595.99
2023-04-05T02:00:13.620Z,495.69
2023-04-05T02:03:23.073Z,468.36
2023-04-05T02:06:29.334Z,455.94
2023-04-05T02:09:36.062Z,444.37
2023-04-05T02:12:42.053Z,434.84
2023-04-05T02:15:52.383Z,437.42
2023-04-05T02:19:02.689Z,426.01
2023-04-05T02:22:09.875Z,484.95
2023-04-05T02:25:16.253Z,498.90
2023-04-05T02:28:24.466Z,516.70
2023-04-05T02:31:33.158Z,544.15
2023-04-05T02:34:43.235Z,532.55
2023-04-05T02:37:49.211Z,517.08
2023-04-05T02:40:55.957Z,444.10
2023-04-05T02:44:02.066Z,384.67
2023-04-05T02:47:10.591Z,398.44
2023-04-05T02:50:20.943Z,476.00
2023-04-05T02:53:28.120Z,448.44
2023-04-05T02:56:39.739Z,420.81
2023-04-05T02:59:52.442Z,379.85
2023-04-05T03:03:00.290Z,348.62
2023-04-05T03:06:13.774Z,331.48
2023-04-05T03:09:27.901Z,302.54
2023-04-05T03:12:38.751Z,300.58
2023-04-05T03:15:47.488Z,307.77
2023-04-05T03:18:57.893Z,422.59
2023-04-05T03:22:06.528Z,401.34
2023-04-05T03:25:17.696Z,348.86
2023-04-05T03:28:27.195Z,309.09
2023-04-05T03:31:39.293Z,296.20
2023-04-05T03:34:48.206Z,296.55
2023-04-05T03:38:00.271Z,298.33
2023-04-05T03:41:07.177Z,277.64
2023-04-05T03:44:15.394Z,278.80
2023-04-05T03:47:23.462Z,279.05
2023-04-05T03:50:32.298Z,310.10
2023-04-05T03:53:41.102Z,290.79
2023-04-05T03:56:48.618Z,298.40
2023-04-05T04:00:00.321Z,316.86
2023-04-05T04:03:10.180Z,330.73
2023-04-05T04:06:20.480Z,349.04
2023-04-05T04:09:31.139Z,350.05
2023-04-05T04:12:44.592Z,341.52
2023-04-05T04:15:51.809Z,368.81
2023-04-05T04:19:14.005Z,336.12
2023-04-05T04:22:38.957Z,359.74
2023-04-05T04:26:01.983Z,349.64
2023-04-05T04:29:31.384Z,321.65
2023-04-05T04:32:56.566Z,308.59
2023-04-05T04:36:41.507Z,278.99
2023-04-05T04:40:26.009Z,255.65
2023-04-05T04:43:47.839Z,229.54
2023-04-05T04:47:04.451Z,230.80
2023-04-05T04:50:26.198Z,351.44
2023-04-05T04:53:32.181Z,440.99
2023-04-05T04:56:39.131Z,713.03
2023-04-05T04:59:47.670Z,1327.21
2023-04-05T05:02:55.387Z,447.15
2023-04-05T05:06:02.938Z,264.65
2023-04-05T05:09:12.053Z,236.01
2023-04-05T05:12:30.372Z,223.55
2023-04-05T05:15:45.342Z,222.05
2023-04-05T05:18:51.508Z,209.99
2023-04-05T05:21:58.333Z,205.61
2023-04-05T05:25:04.111Z,212.27
2023-04-05T05:28:11.160Z,264.31
2023-04-05T05:31:20.312Z,349.89
2023-04-05T05:34:28.420Z,369.21
2023-04-05T05:37:38.130Z,363.41
2023-04-05T05:40:44.986Z,310.77
2023-04-05T05:43:51.034Z,286.27
2023-04-05T05:47:00.794Z,288.46
2023-04-05T05:50:07.137Z,293.55
2023-04-05T05:53:13.837Z,330.50
2023-04-05T05:56:19.889Z,330.29
2023-04-05T05:59:26.700Z,357.25
2023-04-05T06:02:35.497Z,401.78
2023-04-05T06:05:44.081Z,391.32
2023-04-05T06:08:51.948Z,504.73
2023-04-05T06:11:59.342Z,334.31
2023-04-05T06:15:18.540Z,297.86
2023-04-05T06:18:33.584Z,324.44
2023-04-05T06:21:39.979Z,313.35
2023-04-05T06:24:46.712Z,318.73
2023-04-05T06:27:54.386Z,306.95
2023-04-05T06:31:02.658Z,320.69
2023-04-05T06:34:11.242Z,323.15
2023-04-05T06:37:18.146Z,330.99
2023-04-05T06:40:24.341Z,289.99
2023-04-05T06:43:31.179Z,272.66
2023-04-05T06:46:37.164Z,277.04
2023-04-05T06:49:46.831Z,286.76
2023-04-05T06:52:52.842Z,294.55
2023-04-05T06:56:02.050Z,290.16
2023-04-05T06:59:08.143Z,292.56
2023-04-05T07:02:16.808Z,289.86
2023-04-05T07:05:26.030Z,298.63
2023-04-05T07:08:35.885Z,312.71
2023-04-05T07:11:41.850Z,313.73
2023-04-05T07:14:48.543Z,335.37
2023-04-05T07:17:54.529Z,277.07
2023-04-05T07:21:04.229Z,246.82
2023-04-05T07:24:17.539Z,303.23
2023-04-05T07:27:24.666Z,267.08
2023-04-05T07:30:32.220Z,267.04
2023-04-05T07:33:39.035Z,277.21
2023-04-05T07:36:50.652Z,285.21
2023-04-05T07:39:58.699Z,243.10
2023-04-05T07:43:05.360Z,184.99
2023-04-05T07:46:12.132Z,205.28
2023-04-05T07:49:18.237Z,237.39
2023-04-05T07:52:27.656Z,246.52
2023-04-05T07:55:34.284Z,228.97
2023-04-05T07:58:42.549Z,174.89
2023-04-05T08:01:48.424Z,189.36
2023-04-05T08:04:55.152Z,206.28
2023-04-05T08:08:04.092Z,207.46
2023-04-05T08:11:10.984Z,213.91
2023-04-05T08:14:19.392Z,194.10
2023-04-05T08:17:27.430Z,168.54
2023-04-05T08:20:39.906Z,156.56
2023-04-05T08:23:57.342Z,154.39
2023-04-05T08:27:03.280Z,162.64
2023-04-05T08:30:12.152Z,147.86
2023-04-05T08:33:18.042Z,169.91
2023-04-05T08:36:26.043Z,124.78
2023-04-05T08:39:34.882Z,130.37
2023-04-05T08:42:55.433Z,103.36
2023-04-05T08:46:05.193Z,104.45
2023-04-05T08:49:12.555Z,106.43
2023-04-05T08:52:19.417Z,117.04
2023-04-05T08:55:29.697Z,96.08
2023-04-05T08:58:41.693Z,104.35
2023-04-05T09:01:51.803Z,85.94
2023-04-05T09:04:58.635Z,80.57
2023-04-05T09:08:06.453Z,75.21
2023-04-05T09:11:22.411Z,74.44
2023-04-05T09:14:33.398Z,69.25
2023-04-05T09:17:44.795Z,74.54
2023-04-05T09:20:51.629Z,80.72
2023-04-05T09:23:58.117Z,97.35
2023-04-05T09:27:12.850Z,112.68
2023-04-05T09:30:34.235Z,86.84
2023-04-05T09:33:50.069Z,78.60
2023-04-05T09:36:56.680Z,72.66
2023-04-05T09:40:16.349Z,72.81
2023-04-05T09:43:43.532Z,67.60
2023-04-05T09:46:50.303Z,62.13
2023-04-05T09:49:56.821Z,81.08
2023-04-05T09:53:16.448Z,99.18
2023-04-05T09:56:23.823Z,57.52
2023-04-05T09:59:33.785Z,84.89
2023-04-05T10:02:41.988Z,58.00
2023-04-05T10:05:48.944Z,59.40
2023-04-05T10:08:55.961Z,59.14
2023-04-05T10:12:08.081Z,68.17
2023-04-05T10:15:17.109Z,78.14
2023-04-05T10:18:40.051Z,76.39
2023-04-05T10:21:51.200Z,78.45
2023-04-05T10:25:08.287Z,72.35
2023-04-05T10:28:20.990Z,68.77
2023-04-05T10:31:49.184Z,60.74
2023-04-05T10:35:07.560Z,61.62
2023-04-05T10:38:27.695Z,72.20
2023-04-05T10:41:43.242Z,75.47
2023-04-05T10:45:00.652Z,64.19
2023-04-05T10:48:22.110Z,62.64
2023-04-05T10:51:30.057Z,71.26
2023-04-05T10:54:38.871Z,93.93
2023-04-05T10:57:47.739Z,105.58
2023-04-05T11:00:57.318Z,96.02
2023-04-05T11:04:17.803Z,69.15
2023-04-05T11:07:23.809Z,64.26
2023-04-05T11:10:32.661Z,69.92
2023-04-05T11:13:53.356Z,60.63
2023-04-05T11:17:00.360Z,56.30
2023-04-05T11:20:15.925Z,63.41
2023-04-05T11:23:26.578Z,61.59
2023-04-05T11:26:37.266Z,72.58
2023-04-05T11:29:54.904Z,100.14
2023-04-05T11:33:01.066Z,78.28
2023-04-05T11:36:11.566Z,71.71
2023-04-05T11:39:31.616Z,55.82
2023-04-05T11:42:41.583Z,65.47
2023-04-05T11:45:49.069Z,69.46
2023-04-05T11:48:55.854Z,116.45
2023-04-05T11:52:15.932Z,70.13
2023-04-05T11:55:30.279Z,55.47
2023-04-05T11:58:37.815Z,53.74
2023-04-05T12:01:48.447Z,52.10
2023-04-05T12:04:59.353Z,53.75
2023-04-05T12:08:08.973Z,52.27
2023-04-05T12:11:15.767Z,56.18
2023-04-05T12:14:27.283Z,52.61
2023-04-05T12:17:51.012Z,52.05
2023-04-05T12:20:58.555Z,51.45
2023-04-05T12:24:07.933Z,55.67
2023-04-05T12:27:15.163Z,96.09
2023-04-05T12:30:24.210Z,84.70
2023-04-05T12:33:33.359Z,74.04
2023-04-05T12:36:40.095Z,67.64
2023-04-05T12:39:49.638Z,54.49
2023-04-05T12:42:56.536Z,50.60
2023-04-05T12:46:05.272Z,51.77
2023-04-05T12:49:21.741Z,59.87
2023-04-05T12:52:35.362Z,80.64
2023-04-05T12:55:52.282Z,62.91
2023-04-05T12:59:01.924Z,49.77
2023-04-05T13:02:09.061Z,56.01
2023-04-05T13:05:16.536Z,142.49
2023-04-05T13:08:23.332Z,140.19
2023-04-05T13:11:32.864Z,92.87
2023-04-05T13:14:39.232Z,75.61
2023-04-05T13:17:50.386Z,102.23
2023-04-05T13:20:56.475Z,104.90
2023-04-05T13:24:03.405Z,56.60
2023-04-05T13:27:11.942Z,114.93
2023-04-05T13:30:19.934Z,157.96
2023-04-05T13:33:26.368Z,50.69
2023-04-05T13:36:33.076Z,51.61
2023-04-05T13:39:39.173Z,75.88
2023-04-05T13:42:49.335Z,53.52
2023-04-05T13:45:57.798Z,54.49
2023-04-05T13:49:04.491Z,56.84
2023-04-05T13:52:10.588Z,77.08
2023-04-05T13:55:18.272Z,124.39
2023-04-05T13:58:26.992Z,105.43
2023-04-05T14:01:37.809Z,88.15
2023-04-05T14:04:44.531Z,54.78
2023-04-05T14:07:51.410Z,52.32
2023-04-05T14:11:00.824Z,72.76
2023-04-05T14:14:12.961Z,128.07
2023-04-05T14:17:33.635Z,69.58
2023-04-05T14:20:40.688Z,70.69
2023-04-05T14:23:46.817Z,78.20
2023-04-05T14:26:53.527Z,61.28
2023-04-05T14:30:08.747Z,61.71
2023-04-05T14:33:17.269Z,90.02
2023-04-05T14:36:23.358Z,96.27
2023-04-05T14:39:30.625Z,60.54
2023-04-05T14:42:48.477Z,63.04
2023-04-05T14:45:59.027Z,59.06
2023-04-05T14:49:18.214Z,59.44
2023-04-05T14:52:25.192Z,63.04
2023-04-05T14:55:31.344Z,111.73
2023-04-05T14:58:38.156Z,111.08
2023-04-05T15:01:53.748Z,86.10
2023-04-05T15:05:00.954Z,90.58
2023-04-05T15:08:07.904Z,117.94
2023-04-05T15:11:15.147Z,81.59
2023-04-05T15:14:31.035Z,85.03
2023-04-05T15:17:41.557Z,63.68
2023-04-05T15:21:02.983Z,108.31
2023-04-05T15:24:21.226Z,96.29
2023-04-05T15:27:27.349Z,128.80
2023-04-05T15:30:35.382Z,71.53
2023-04-05T15:33:44.039Z,217.86
2023-04-05T15:36:52.643Z,552.84
2023-04-05T15:39:59.643Z,209.33
2023-04-05T15:43:14.074Z,68.60
2023-04-05T15:46:20.091Z,78.41
2023-04-05T15:49:31.723Z,111.80
2023-04-05T15:52:41.160Z,151.32
2023-04-05T15:55:47.940Z,88.42
2023-04-05T15:58:53.993Z,107.86
2023-04-05T16:02:00.827Z,68.05
2023-04-05T16:05:10.135Z,65.46
2023-04-05T16:08:19.428Z,109.94
2023-04-05T16:11:25.691Z,105.36
2023-04-05T16:14:32.827Z,89.61
2023-04-05T16:17:38.832Z,77.05
2023-04-05T16:20:48.633Z,68.81
2023-04-05T16:24:01.393Z,62.77
2023-04-05T16:27:08.360Z,64.57
2023-04-05T16:30:15.270Z,81.00
2023-04-05T16:33:22.108Z,67.12
2023-04-05T16:36:35.618Z,69.55
2023-04-05T16:39:42.386Z,70.15
2023-04-05T16:42:51.197Z,79.74
2023-04-05T16:45:58.141Z,91.91
2023-04-05T16:49:23.996Z,106.76
2023-04-05T16:52:34.270Z,105.76
2023-04-05T16:55:46.739Z,112.92
2023-04-05T16:59:06.714Z,146.09
2023-04-05T17:02:24.507Z,155.27
2023-04-05T17:05:38.573Z,138.05
2023-04-05T17:08:49.465Z,101.70
2023-04-05T17:11:56.547Z,98.02
2023-04-05T17:15:03.361Z,93.06
2023-04-05T17:18:10.262Z,89.12
2023-04-05T17:21:23.338Z,88.00
2023-04-05T17:24:37.630Z,91.13
2023-04-05T17:27:43.593Z,85.21
2023-04-05T17:30:50.742Z,88.51
2023-04-05T17:33:57.391Z,94.45
2023-04-05T17:37:12.205Z,106.67
2023-04-05T17:40:21.732Z,124.60
2023-04-05T17:43:32.993Z,125.28
2023-04-05T17:46:46.282Z,134.90
2023-04-05T17:49:59.996Z,152.71
2023-04-05T17:53:06.500Z,164.84
2023-04-05T17:56:16.248Z,165.22
2023-04-05T17:59:22.206Z,171.75
2023-04-05T18:02:29.379Z,182.90
2023-04-05T18:05:36.574Z,187.42
2023-04-05T18:08:43.775Z,195.03
2023-04-05T18:11:53.579Z,211.19
2023-04-05T18:15:00.427Z,227.07
2023-04-05T18:18:26.345Z,199.52
2023-04-05T18:21:37.922Z,163.64
2023-04-05T18:24:46.731Z,137.71
2023-04-05T18:27:56.217Z,126.27
2023-04-05T18:31:02.353Z,124.94
2023-04-05T18:34:09.246Z,142.43
2023-04-05T18:37:17.624Z,157.78
2023-04-05T18:40:47.047Z,170.62
2023-04-05T18:43:57.630Z,178.79
2023-04-05T18:47:05.159Z,196.88
2023-04-05T18:50:29.507Z,225.23
2023-04-05T18:53:36.874Z,255.24
2023-04-05T18:56:43.012Z,311.33
2023-04-05T19:00:04.791Z,351.16
2023-04-05T19:03:28.600Z,409.12
2023-04-05T19:06:35.788Z,708.43
2023-04-05T19:09:41.933Z,859.55
2023-04-05T19:12:49.494Z,792.03
2023-04-05T19:16:00.702Z,704.49
2023-04-05T19:19:09.250Z,662.75
2023-04-05T19:22:16.148Z,647.40
2023-04-05T19:25:30.277Z,673.09
2023-04-05T19:28:36.436Z,731.83
2023-04-05T19:31:46.042Z,723.93
2023-04-05T19:34:53.021Z,834.44
2023-04-05T19:38:01.386Z,965.55
2023-04-05T19:41:07.502Z,920.68
2023-04-05T19:44:14.962Z,756.76
2023-04-05T19:47:38.793Z,705.16
2023-04-05T19:50:52.867Z,729.84
2023-04-05T19:54:03.194Z,705.39
2023-04-05T19:57:11.929Z,746.50
2023-04-05T20:00:39.401Z,816.63
2023-04-05T20:03:49.017Z,737.37
2023-04-05T20:06:59.383Z,676.75
2023-04-05T20:10:21.198Z,692.49
2023-04-05T20:13:35.099Z,734.47
2023-04-05T20:16:41.919Z,853.44
2023-04-05T20:20:08.623Z,746.42
2023-04-05T20:23:23.110Z,751.90
2023-04-05T20:26:34.745Z,783.83
2023-04-05T20:29:42.200Z,820.65
2023-04-05T20:32:48.318Z,917.51
2023-04-05T20:35:57.841Z,887.21
2023-04-05T20:39:06.920Z,783.67
2023-04-05T20:42:14.637Z,699.76
2023-04-05T20:45:24.367Z,710.12
2023-04-05T20:48:31.235Z,773.99
2023-04-05T20:51:41.971Z,785.34
2023-04-05T20:54:51.643Z,803.11
2023-04-05T20:57:57.580Z,820.56
2023-04-05T21:01:05.383Z,815.94
2023-04-05T21:04:12.053Z,832.78
2023-04-05T21:07:22.118Z,914.34
2023-04-05T21:10:28.114Z,881.49
2023-04-05T21:13:38.290Z,895.95
2023-04-05T21:16:44.169Z,863.97
2023-04-05T21:19:51.010Z,840.16
2023-04-05T21:23:03.602Z,858.84
2023-04-05T21:26:13.213Z,837.42
2023-04-05T21:29:19.264Z,834.56
2023-04-05T21:32:26.361Z,828.86
2023-04-05T21:35:35.142Z,872.62
2023-04-05T21:38:44.614Z,907.47
2023-04-05T21:41:50.613Z,889.45
2023-04-05T21:44:58.312Z,907.17
2023-04-05T21:48:04.333Z,948.62
2023-04-05T21:51:11.289Z,935.13
2023-04-05T21:54:19.833Z,904.42
2023-04-05T21:57:29.218Z,907.50
2023-04-05T22:00:35.320Z,962.39
2023-04-05T22:03:42.764Z,914.47
2023-04-05T22:06:49.036Z,1169.93
2023-04-05T22:09:58.590Z,1046.62
2023-04-05T22:13:04.768Z,1031.73
2023-04-05T22:16:11.948Z,1020.83
2023-04-05T22:19:18.201Z,977.92
2023-04-05T22:22:25.108Z,969.49
2023-04-05T22:25:33.843Z,1027.74
2023-04-05T22:28:40.842Z,1025.86
2023-04-05T22:31:47.146Z,971.54
2023-04-05T22:34:54.190Z,967.75
2023-04-05T22:38:00.262Z,944.56
2023-04-05T22:41:09.803Z,850.94
2023-04-05T22:44:19.925Z,826.42
2023-04-05T22:47:26.850Z,862.08
2023-04-05T22:50:32.820Z,885.60
2023-04-05T22:53:41.054Z,936.28
2023-04-05T22:56:49.773Z,981.06
2023-04-05T22:59:59.091Z,1136.01
2023-04-05T23:03:05.346Z,974.71
2023-04-05T23:06:12.128Z,824.60
2023-04-05T23:09:21.109Z,923.49
2023-04-05T23:12:30.504Z,941.29
2023-04-05T23:15:36.886Z,823.41
2023-04-05T23:18:43.671Z,740.14
2023-04-05T23:21:49.630Z,706.25
2023-04-05T23:24:56.428Z,746.03
2023-04-05T23:28:04.989Z,898.46
2023-04-05T23:31:11.957Z,907.55
2023-04-05T23:34:18.281Z,771.02
2023-04-05T23:37:25.424Z,840.54
2023-04-05T23:40:31.397Z,842.22
2023-04-05T23:43:40.930Z,855.31
2023-04-05T23:46:47.100Z,844.85
2023-04-05T23:49:53.995Z,690.31
2023-04-05T23:53:01.181Z,768.53
2023-04-05T23:56:09.367Z,777.60
2023-04-05T23:59:18.847Z,820.15
